createdAt,value
2018-05-04T00:00:33.475Z,57.50
2018-05-04T00:01:35.975Z,57.60
2018-05-04T00:02:38.440Z,57.70
2018-05-04T00:03:40.923Z,57.80
2018-05-04T00:04:43.399Z,57.80
2018-05-04T00:05:46.206Z,57.90
2018-05-04T00:06:48.711Z,58.20
2018-05-04T00:07:51.175Z,58.00
2018-05-04T00:08:53.664Z,58.00
2018-05-04T00:09:56.132Z,58.10
2018-05-04T00:10:58.837Z,57.70
2018-05-04T00:12:01.332Z,58.20
2018-05-04T00:13:03.815Z,58.20
2018-05-04T00:14:06.411Z,58.30
2018-05-04T00:15:09.100Z,58.30
2018-05-04T00:16:11.783Z,58.40
2018-05-04T00:17:14.277Z,58.50
2018-05-04T00:18:16.748Z,58.60
2018-05-04T00:19:19.232Z,58.60
2018-05-04T00:20:21.933Z,58.60
2018-05-04T00:21:24.754Z,58.60
2018-05-04T00:22:27.240Z,59.10
2018-05-04T00:23:29.703Z,58.70
2018-05-04T00:24:32.196Z,58.70
2018-05-04T00:25:34.971Z,58.80
2018-05-04T00:26:37.461Z,58.70
2018-05-04T00:27:39.925Z,58.70
2018-05-04T00:28:42.387Z,58.80
2018-05-04T00:29:44.908Z,58.80
2018-05-04T00:30:48.418Z,58.80
2018-05-04T00:31:50.919Z,58.70
2018-05-04T00:32:53.387Z,58.90
2018-05-04T00:33:55.856Z,58.90
2018-05-04T00:34:58.348Z,58.90
2018-05-04T00:36:01.871Z,59.00
2018-05-04T00:37:04.368Z,59.00
2018-05-04T00:38:06.832Z,59.00
2018-05-04T00:39:09.296Z,58.90
2018-05-04T00:40:12.153Z,58.90
2018-05-04T00:41:14.906Z,58.90
2018-05-04T00:42:17.399Z,58.90
2018-05-04T00:43:19.872Z,59.00
2018-05-04T00:44:22.336Z,59.10
2018-05-04T00:45:25.807Z,59.10
2018-05-04T00:46:28.327Z,59.20
2018-05-04T00:47:31.559Z,59.30
2018-05-04T00:48:34.024Z,59.30
2018-05-04T00:49:36.488Z,59.40
2018-05-04T00:50:39.284Z,59.50
2018-05-04T00:51:41.767Z,59.60
2018-05-04T00:52:45.004Z,59.70
2018-05-04T00:53:59.418Z,59.60
2018-05-04T00:55:01.995Z,59.80
2018-05-04T00:56:04.970Z,59.70
2018-05-04T00:57:07.468Z,59.80
2018-05-04T00:58:09.936Z,59.90
2018-05-04T00:59:13.287Z,60.00
2018-05-04T01:00:16.054Z,60.10
2018-05-04T01:01:18.875Z,60.20
2018-05-04T01:02:22.132Z,60.50
2018-05-04T01:03:24.596Z,60.50
2018-05-04T01:04:27.061Z,60.70
2018-05-04T01:05:29.750Z,60.70
2018-05-04T01:06:32.265Z,60.80
2018-05-04T01:07:34.726Z,60.90
2018-05-04T01:08:37.194Z,61.00
2018-05-04T01:09:39.705Z,61.20
2018-05-04T01:10:42.538Z,61.20
2018-05-04T01:11:45.070Z,61.40
2018-05-04T01:12:47.538Z,61.60
2018-05-04T01:13:50.792Z,62.10
2018-05-04T01:14:53.272Z,62.00
2018-05-04T01:15:55.999Z,62.30
2018-05-04T01:16:58.505Z,62.40
2018-05-04T01:18:00.976Z,62.50
2018-05-04T01:19:03.443Z,62.60
2018-05-04T01:20:06.150Z,62.70
2018-05-04T01:21:09.024Z,62.50
2018-05-04T01:22:11.540Z,62.90
2018-05-04T01:23:14.008Z,63.00
2018-05-04T01:24:16.470Z,63.20
2018-05-04T01:25:19.274Z,63.40
2018-05-04T01:26:22.881Z,63.60
2018-05-04T01:27:25.403Z,63.60
2018-05-04T01:28:28.298Z,63.70
2018-05-04T01:29:31.536Z,63.70
2018-05-04T01:30:34.379Z,63.60
2018-05-04T01:31:36.887Z,63.70
2018-05-04T01:32:39.379Z,63.60
2018-05-04T01:33:42.608Z,64.60
2018-05-04T01:34:45.072Z,64.00
2018-05-04T01:35:47.846Z,64.20
2018-05-04T01:36:50.333Z,64.50
2018-05-04T01:37:53.122Z,64.60
2018-05-04T01:38:55.583Z,64.80
2018-05-04T01:39:58.580Z,65.00
2018-05-04T01:41:02.091Z,65.60
2018-05-04T01:42:04.591Z,65.40
2018-05-04T01:43:07.102Z,65.60
2018-05-04T01:44:10.335Z,65.60
2018-05-04T01:45:13.178Z,65.60
2018-05-04T01:46:16.049Z,65.50
2018-05-04T01:47:18.555Z,65.50
2018-05-04T01:48:21.088Z,65.50
2018-05-04T01:49:23.606Z,65.70
2018-05-04T01:50:26.620Z,65.80
2018-05-04T01:51:29.108Z,65.90
2018-05-04T01:52:31.579Z,66.00
2018-05-04T01:53:34.056Z,66.10
2018-05-04T01:54:36.519Z,66.20
2018-05-04T01:55:39.251Z,66.20
2018-05-04T01:56:41.756Z,66.30
2018-05-04T01:57:44.243Z,66.40
2018-05-04T01:58:46.728Z,66.50
2018-05-04T01:59:49.963Z,66.70
2018-05-04T02:00:52.702Z,66.70
2018-05-04T02:01:55.201Z,66.90
2018-05-04T02:02:57.675Z,67.00
2018-05-04T02:04:00.156Z,67.20
2018-05-04T02:05:03.575Z,68.00
2018-05-04T02:06:06.249Z,67.40
2018-05-04T02:07:08.747Z,67.60
2018-05-04T02:08:11.227Z,67.70
2018-05-04T02:09:13.723Z,67.80
2018-05-04T02:10:17.509Z,68.40
2018-05-04T02:11:21.027Z,69.20
2018-05-04T02:12:23.528Z,68.60
2018-05-04T02:13:26.000Z,68.80
2018-05-04T02:14:28.486Z,69.00
2018-05-04T02:15:31.233Z,69.20
2018-05-04T02:16:33.719Z,70.00
2018-05-04T02:17:36.179Z,69.70
2018-05-04T02:18:38.644Z,70.00
2018-05-04T02:19:41.412Z,70.20
2018-05-04T02:20:44.229Z,70.50
2018-05-04T02:21:46.737Z,70.80
2018-05-04T02:22:49.208Z,70.80
2018-05-04T02:23:51.680Z,70.80
2018-05-04T02:24:54.166Z,70.90
2018-05-04T02:25:57.610Z,71.10
2018-05-04T02:27:00.860Z,71.20
2018-05-04T02:28:03.526Z,71.20
2018-05-04T02:29:05.995Z,71.20
2018-05-04T02:30:08.810Z,71.50
2018-05-04T02:31:11.637Z,71.50
2018-05-04T02:32:14.206Z,72.20
2018-05-04T02:33:16.705Z,72.30
2018-05-04T02:34:19.168Z,72.40
2018-05-04T02:35:22.007Z,72.60
2018-05-04T02:36:24.776Z,72.90
2018-05-04T02:37:27.288Z,73.20
2018-05-04T02:38:30.567Z,73.60
2018-05-04T02:39:33.043Z,74.00
2018-05-04T02:40:35.764Z,74.10
2018-05-04T02:41:38.261Z,74.30
2018-05-04T02:42:40.736Z,74.50
2018-05-04T02:43:43.220Z,74.60
2018-05-04T02:44:45.697Z,74.80
2018-05-04T02:45:49.530Z,74.90
2018-05-04T02:46:52.017Z,74.90
2018-05-04T02:47:54.484Z,75.40
2018-05-04T02:48:56.946Z,74.70
2018-05-04T02:49:59.415Z,74.80
2018-05-04T02:51:02.248Z,74.70
2018-05-04T02:52:04.761Z,75.20
2018-05-04T02:53:07.237Z,74.50
2018-05-04T02:54:09.781Z,74.30
2018-05-04T02:55:12.615Z,74.40
2018-05-04T02:56:16.214Z,74.30
2018-05-04T02:57:18.710Z,74.30
2018-05-04T02:58:21.251Z,74.30
2018-05-04T02:59:23.720Z,74.30
2018-05-04T03:00:26.471Z,74.20
2018-05-04T03:01:29.025Z,74.30
2018-05-04T03:02:32.240Z,74.50
2018-05-04T03:03:34.715Z,74.30
2018-05-04T03:04:37.240Z,74.20
2018-05-04T03:05:39.976Z,74.20
2018-05-04T03:06:42.526Z,74.40
2018-05-04T03:07:45.024Z,74.80
2018-05-04T03:08:48.252Z,75.00
2018-05-04T03:09:50.736Z,75.00
2018-05-04T03:10:53.506Z,75.00
2018-05-04T03:11:56.000Z,75.00
2018-05-04T03:12:58.468Z,75.10
2018-05-04T03:14:00.936Z,75.00
2018-05-04T03:15:04.452Z,75.30
2018-05-04T03:16:07.223Z,75.10
2018-05-04T03:17:09.744Z,75.30
2018-05-04T03:18:12.224Z,75.40
2018-05-04T03:19:15.455Z,76.20
2018-05-04T03:20:18.145Z,75.50
2018-05-04T03:21:22.427Z,76.20
2018-05-04T03:22:24.924Z,75.60
2018-05-04T03:23:27.392Z,75.70
2018-05-04T03:24:29.859Z,76.20
2018-05-04T03:25:32.388Z,75.70
2018-05-04T03:26:34.868Z,75.60
2018-05-04T03:27:38.167Z,75.60
2018-05-04T03:28:40.636Z,75.50
2018-05-04T03:29:43.108Z,75.50
2018-05-04T03:30:46.157Z,75.60
2018-05-04T03:31:48.652Z,75.70
2018-05-04T03:32:51.138Z,75.80
2018-05-04T03:33:54.442Z,75.90
2018-05-04T03:34:56.908Z,75.90
2018-05-04T03:35:59.683Z,76.00
2018-05-04T03:37:02.184Z,76.00
2018-05-04T03:38:04.664Z,75.90
2018-05-04T03:39:07.142Z,76.00
2018-05-04T03:40:11.170Z,76.80
2018-05-04T03:41:13.941Z,76.10
2018-05-04T03:42:16.454Z,76.10
2018-05-04T03:43:18.960Z,76.10
2018-05-04T03:44:22.195Z,76.20
2018-05-04T03:45:24.924Z,76.20
2018-05-04T03:46:27.697Z,76.20
2018-05-04T03:47:30.217Z,76.20
2018-05-04T03:48:32.704Z,76.20
2018-05-04T03:49:35.939Z,76.40
2018-05-04T03:50:38.781Z,76.30
2018-05-04T03:51:41.289Z,76.40
2018-05-04T03:52:43.748Z,76.50
2018-05-04T03:53:46.306Z,76.70
2018-05-04T03:54:48.771Z,76.90
2018-05-04T03:55:51.416Z,77.10
2018-05-04T03:58:41.960Z,77.30
2018-05-04T03:59:57.807Z,77.20
2018-05-04T04:01:12.585Z,77.20
2018-05-04T04:02:27.065Z,77.10
2018-05-04T04:03:42.056Z,77.20
2018-05-04T04:04:44.535Z,77.20
2018-05-04T04:05:47.293Z,77.30
2018-05-04T04:06:49.792Z,77.50
2018-05-04T04:07:52.268Z,77.90
2018-05-04T04:08:54.740Z,78.30
2018-05-04T04:09:57.230Z,78.70
2018-05-04T04:11:00.929Z,79.00
2018-05-04T04:12:03.412Z,79.20
2018-05-04T04:13:05.876Z,79.40
2018-05-04T04:14:08.344Z,79.60
2018-05-04T04:15:11.128Z,79.60
2018-05-04T04:16:14.170Z,79.40
2018-05-04T04:17:16.668Z,79.70
2018-05-04T04:18:19.571Z,79.60
2018-05-04T04:19:22.048Z,79.70
2018-05-04T04:20:25.565Z,79.90
2018-05-04T04:21:28.232Z,79.90
2018-05-04T04:22:30.696Z,80.00
2018-05-04T04:23:33.157Z,79.90
2018-05-04T04:24:35.629Z,79.90
2018-05-04T04:25:38.401Z,79.90
2018-05-04T04:26:40.876Z,79.80
2018-05-04T04:27:43.367Z,79.60
2018-05-04T04:28:45.853Z,79.30
2018-05-04T04:29:48.375Z,79.20
2018-05-04T04:30:51.200Z,79.20
2018-05-04T04:31:54.451Z,79.50
2018-05-04T04:32:56.928Z,79.50
2018-05-04T04:33:59.392Z,79.70
2018-05-04T04:35:01.863Z,80.00
2018-05-04T04:36:04.666Z,80.10
2018-05-04T04:37:07.163Z,80.30
2018-05-04T04:38:09.628Z,80.60
2018-05-04T04:39:12.088Z,80.70
2018-05-04T04:40:14.847Z,80.80
2018-05-04T04:41:17.614Z,80.80
2018-05-04T04:42:20.108Z,80.90
2018-05-04T04:43:22.576Z,80.70
2018-05-04T04:44:25.043Z,80.70
2018-05-04T04:45:28.134Z,80.60
2018-05-04T04:46:31.416Z,80.70
2018-05-04T04:47:33.884Z,80.70
2018-05-04T04:48:36.360Z,80.70
2018-05-04T04:49:38.832Z,80.60
2018-05-04T04:50:41.546Z,81.00
2018-05-04T04:51:44.135Z,80.40
2018-05-04T04:52:47.316Z,80.30
2018-05-04T04:53:49.780Z,80.30
2018-05-04T04:54:52.298Z,80.20
2018-05-04T04:55:55.082Z,80.10
2018-05-04T04:56:57.609Z,80.10
2018-05-04T04:58:00.078Z,80.10
2018-05-04T04:59:02.543Z,80.30
2018-05-04T05:00:05.298Z,80.80
2018-05-04T05:01:08.943Z,80.30
2018-05-04T05:02:11.492Z,80.30
2018-05-04T05:03:14.740Z,81.10
2018-05-04T05:04:17.213Z,80.90
2018-05-04T05:05:20.027Z,81.30
2018-05-04T05:06:22.616Z,81.80
2018-05-04T05:07:25.106Z,82.00
2018-05-04T05:08:27.575Z,82.20
2018-05-04T05:09:30.040Z,82.30
2018-05-04T05:10:32.771Z,82.40
2018-05-04T05:11:35.255Z,82.50
2018-05-04T05:12:37.741Z,82.60
2018-05-04T05:13:40.250Z,82.70
2018-05-04T05:14:42.718Z,82.70
2018-05-04T05:15:45.377Z,82.80
2018-05-04T05:16:47.867Z,82.70
2018-05-04T05:17:50.348Z,82.80
2018-05-04T05:18:52.873Z,82.80
2018-05-04T05:19:55.360Z,83.00
2018-05-04T05:20:59.446Z,82.90
2018-05-04T05:22:02.042Z,82.80
2018-05-04T05:23:04.449Z,83.10
2018-05-04T05:24:07.684Z,83.30
2018-05-04T05:25:10.386Z,83.30
2018-05-04T05:26:13.949Z,83.00
2018-05-04T05:27:16.440Z,83.50
2018-05-04T05:28:18.920Z,83.40
2018-05-04T05:29:22.158Z,83.70
2018-05-04T05:30:24.931Z,83.70
2018-05-04T05:31:27.898Z,83.80
2018-05-04T05:32:30.404Z,83.90
2018-05-04T05:33:32.879Z,83.90
2018-05-04T05:34:36.249Z,84.40
2018-05-04T05:35:40.453Z,84.30
2018-05-04T05:36:42.947Z,84.30
2018-05-04T05:37:46.187Z,84.30
2018-05-04T05:38:48.670Z,84.30
2018-05-04T05:39:51.136Z,84.20
2018-05-04T05:40:53.821Z,84.30
2018-05-04T05:41:56.318Z,84.20
2018-05-04T05:42:58.795Z,84.20
2018-05-04T05:44:01.285Z,84.40
2018-05-04T05:45:04.008Z,84.60
2018-05-04T05:46:07.497Z,84.80
2018-05-04T05:47:10.024Z,84.90
2018-05-04T05:48:12.499Z,85.10
2018-05-04T05:49:15.748Z,85.50
2018-05-04T05:50:18.482Z,85.50
2018-05-04T05:51:21.148Z,85.40
2018-05-04T05:52:23.651Z,85.50
2018-05-04T05:53:26.161Z,85.50
2018-05-04T05:54:29.396Z,85.10
2018-05-04T05:55:32.040Z,85.10
2018-05-04T05:56:34.550Z,85.00
2018-05-04T05:57:37.021Z,85.00
2018-05-04T05:58:40.371Z,85.20
2018-05-04T05:59:42.836Z,85.80
2018-05-04T06:00:45.479Z,85.50
2018-05-04T06:01:47.995Z,85.70
2018-05-04T06:02:50.464Z,85.60
2018-05-04T06:03:52.947Z,85.40
2018-05-04T06:04:56.184Z,85.00
2018-05-04T06:05:59.027Z,84.90
2018-05-04T06:07:01.531Z,84.70
2018-05-04T06:08:04.048Z,84.80
2018-05-04T06:09:06.892Z,84.60
2018-05-04T06:10:10.631Z,84.40
2018-05-04T06:11:13.396Z,84.20
2018-05-04T06:12:15.892Z,84.00
2018-05-04T06:13:18.368Z,83.80
2018-05-04T06:14:20.848Z,83.60
2018-05-04T06:15:23.663Z,83.20
2018-05-04T06:16:26.537Z,82.90
2018-05-04T06:17:29.852Z,82.40
2018-05-04T06:18:32.325Z,82.20
2018-05-04T06:19:35.116Z,82.20
2018-05-04T06:20:37.873Z,82.00
2018-05-04T06:21:40.351Z,81.80
2018-05-04T06:22:42.839Z,81.80
2018-05-04T06:23:46.067Z,80.00
2018-05-04T06:24:48.565Z,79.90
2018-05-04T06:25:52.611Z,79.00
2018-05-04T06:26:55.141Z,78.90
2018-05-04T06:27:57.607Z,78.60
2018-05-04T06:29:00.844Z,78.20
2018-05-04T06:30:03.695Z,78.20
2018-05-04T06:31:06.404Z,78.00
2018-05-04T06:32:09.672Z,77.50
2018-05-04T06:33:12.143Z,77.40
2018-05-04T06:34:14.608Z,77.10
2018-05-04T06:35:17.444Z,76.90
2018-05-04T06:36:21.070Z,77.20
2018-05-04T06:37:23.552Z,75.80
2018-05-04T06:38:26.023Z,75.30
2018-05-04T06:39:28.489Z,75.70
2018-05-04T06:40:31.200Z,74.80
2018-05-04T06:41:33.710Z,74.50
2018-05-04T06:42:36.180Z,74.30
2018-05-04T06:43:38.648Z,74.10
2018-05-04T06:44:41.128Z,73.80
2018-05-04T06:45:44.776Z,72.60
2018-05-04T06:46:48.064Z,71.40
2018-05-04T06:47:50.523Z,71.40
2018-05-04T06:48:52.987Z,70.40
2018-05-04T06:49:55.463Z,69.60
2018-05-04T06:50:58.196Z,68.70
2018-05-04T06:52:00.700Z,67.20
2018-05-04T06:53:03.166Z,65.80
2018-05-04T06:54:05.632Z,64.70
2018-05-04T06:55:08.410Z,64.40
2018-05-04T06:56:11.273Z,64.00
2018-05-04T06:57:13.756Z,63.20
2018-05-04T06:58:16.220Z,63.00
2018-05-04T06:59:18.695Z,62.70
2018-05-04T07:00:22.115Z,62.40
2018-05-04T07:01:24.886Z,61.70
2018-05-04T07:02:27.383Z,61.00
2018-05-04T07:03:29.851Z,60.50
2018-05-04T07:04:32.324Z,59.90
2018-05-04T07:05:35.153Z,59.70
2018-05-04T07:06:37.664Z,59.70
2018-05-04T07:07:40.148Z,59.70
2018-05-04T07:08:43.380Z,59.90
2018-05-04T07:09:45.848Z,59.60
2018-05-04T07:10:48.623Z,59.40
2018-05-04T07:11:51.391Z,59.20
2018-05-04T07:12:53.863Z,59.10
2018-05-04T07:13:56.324Z,59.20
2018-05-04T07:14:58.791Z,59.20
2018-05-04T07:16:01.874Z,59.30
2018-05-04T07:17:04.491Z,59.30
2018-05-04T07:18:07.727Z,59.70
2018-05-04T07:19:10.196Z,59.60
2018-05-04T07:20:12.976Z,59.80
2018-05-04T07:21:15.803Z,59.80
2018-05-04T07:22:18.320Z,60.30
2018-05-04T07:23:20.812Z,59.80
2018-05-04T07:24:24.051Z,59.70
2018-05-04T07:25:26.831Z,59.70
2018-05-04T07:26:29.324Z,59.50
2018-05-04T07:27:31.806Z,59.20
2018-05-04T07:28:35.080Z,59.40
2018-05-04T07:29:37.525Z,59.30
2018-05-04T07:30:40.337Z,59.40
2018-05-04T07:31:42.827Z,59.40
2018-05-04T07:32:45.325Z,59.20
2018-05-04T07:33:47.796Z,58.80
2018-05-04T07:34:51.028Z,58.00
2018-05-04T07:35:53.776Z,58.00
2018-05-04T07:36:56.231Z,57.80
2018-05-04T07:37:59.507Z,57.80
2018-05-04T07:39:02.976Z,58.00
2018-05-04T07:40:05.688Z,57.90
2018-05-04T07:41:08.479Z,58.10
2018-05-04T07:42:10.963Z,57.90
2018-05-04T07:43:13.546Z,57.30
2018-05-04T07:44:16.702Z,57.10
2018-05-04T07:45:19.442Z,57.10
2018-05-04T07:46:22.245Z,57.20
2018-05-04T07:47:24.723Z,57.10
2018-05-04T07:48:27.206Z,57.10
2018-05-04T07:49:29.683Z,56.90
2018-05-04T07:50:33.202Z,56.90
2018-05-04T07:51:35.708Z,56.80
2018-05-04T07:52:38.256Z,56.70
2018-05-04T07:53:41.452Z,56.40
2018-05-04T07:54:43.920Z,56.20
2018-05-04T07:55:46.755Z,56.20
2018-05-04T07:56:49.276Z,55.90
2018-05-04T07:57:52.525Z,56.10
2018-05-04T07:58:55.060Z,55.80
2018-05-04T07:59:57.534Z,55.90
2018-05-04T08:01:00.198Z,55.90
2018-05-04T08:02:02.708Z,55.80
2018-05-04T08:03:05.183Z,55.50
2018-05-04T08:04:07.685Z,55.40
2018-05-04T08:05:10.469Z,55.30
2018-05-04T08:06:13.235Z,55.30
2018-05-04T08:07:15.763Z,55.40
2018-05-04T08:08:19.019Z,55.10
2018-05-04T08:09:21.495Z,55.00
2018-05-04T08:10:24.265Z,54.80
2018-05-04T08:11:27.271Z,54.60
2018-05-04T08:12:29.752Z,55.00
2018-05-04T08:13:32.235Z,54.40
2018-05-04T08:14:34.744Z,54.20
2018-05-04T08:15:37.664Z,54.10
2018-05-04T08:16:40.164Z,54.10
2018-05-04T08:17:42.636Z,54.10
2018-05-04T08:18:45.116Z,53.70
2018-05-04T08:19:47.599Z,53.20
2018-05-04T08:20:51.212Z,52.90
2018-05-04T08:21:53.734Z,52.90
2018-05-04T08:22:56.199Z,52.90
2018-05-04T08:23:59.432Z,53.00
2018-05-04T08:25:01.971Z,52.90
2018-05-04T08:26:05.002Z,52.80
2018-05-04T08:27:07.500Z,52.80
2018-05-04T08:28:10.836Z,52.70
2018-05-04T08:29:13.311Z,52.60
2018-05-04T08:30:16.098Z,52.70
2018-05-04T08:31:18.926Z,52.60
2018-05-04T08:32:21.432Z,52.50
2018-05-04T08:33:23.900Z,52.50
2018-05-04T08:34:26.373Z,52.30
2018-05-04T08:35:29.224Z,52.20
2018-05-04T08:36:32.516Z,52.00
2018-05-04T08:37:34.990Z,52.00
2018-05-04T08:38:37.468Z,52.20
2018-05-04T08:39:39.945Z,51.60
2018-05-04T08:40:45.164Z,51.30
2018-05-04T08:41:47.688Z,51.30
2018-05-04T08:42:50.218Z,51.30
2018-05-04T08:43:52.647Z,51.10
2018-05-04T08:44:56.619Z,50.70
2018-05-04T08:45:59.364Z,50.60
2018-05-04T08:47:01.864Z,50.30
2018-05-04T08:48:04.332Z,49.70
2018-05-04T08:49:06.799Z,49.00
2018-05-04T08:50:09.528Z,48.50
2018-05-04T08:51:12.363Z,48.40
2018-05-04T08:52:15.604Z,48.40
2018-05-04T08:53:18.081Z,48.40
2018-05-04T08:54:20.606Z,48.20
2018-05-04T08:55:23.337Z,48.00
2018-05-04T08:56:26.879Z,47.40
2018-05-04T08:57:29.379Z,47.40
2018-05-04T08:58:31.848Z,47.00
2018-05-04T08:59:34.308Z,46.60
2018-05-04T09:00:37.140Z,46.40
2018-05-04T09:01:39.664Z,46.20
2018-05-04T09:02:42.128Z,46.10
2018-05-04T09:03:44.604Z,46.30
2018-05-04T09:04:47.075Z,46.40
2018-05-04T09:05:50.634Z,46.60
2018-05-04T09:06:53.183Z,46.50
2018-05-04T09:07:55.654Z,46.70
2018-05-04T09:08:58.116Z,46.80
2018-05-04T09:10:00.587Z,46.80
2018-05-04T09:11:03.318Z,46.70
2018-05-04T09:12:05.847Z,46.70
2018-05-04T09:13:09.084Z,46.40
2018-05-04T09:14:11.556Z,46.60
2018-05-04T09:15:14.404Z,46.40
2018-05-04T09:16:17.175Z,46.40
2018-05-04T09:17:20.077Z,46.40
2018-05-04T09:18:22.557Z,46.50
2018-05-04T09:19:25.024Z,46.90
2018-05-04T09:20:28.467Z,46.90
2018-05-04T09:21:30.956Z,46.90
2018-05-04T09:22:33.756Z,45.90
2018-05-04T09:23:36.224Z,45.70
2018-05-04T09:24:38.688Z,45.50
2018-05-04T09:25:41.402Z,45.40
2018-05-04T09:26:43.895Z,45.40
2018-05-04T09:27:46.407Z,45.50
2018-05-04T09:28:49.635Z,45.50
2018-05-04T09:29:52.100Z,45.50
2018-05-04T09:30:54.873Z,45.50
2018-05-04T09:31:58.148Z,45.30
2018-05-04T09:33:00.639Z,45.30
2018-05-04T09:34:03.100Z,45.10
2018-05-04T09:35:05.935Z,45.20
2018-05-04T09:36:08.808Z,45.30
2018-05-04T09:37:11.325Z,45.50
2018-05-04T09:38:13.780Z,45.80
2018-05-04T09:39:16.249Z,46.20
2018-05-04T09:40:19.075Z,46.40
2018-05-04T09:41:21.852Z,46.50
2018-05-04T09:42:24.355Z,46.70
2018-05-04T09:43:26.852Z,46.80
2018-05-04T09:44:30.095Z,46.60
2018-05-04T09:45:32.932Z,46.60
2018-05-04T09:46:35.411Z,46.60
2018-05-04T09:47:37.877Z,46.50
2018-05-04T09:48:40.360Z,46.50
2018-05-04T09:49:42.829Z,46.20
2018-05-04T09:50:45.583Z,45.80
2018-05-04T09:51:49.584Z,45.40
2018-05-04T09:52:52.060Z,45.30
2018-05-04T09:53:54.548Z,45.50
2018-05-04T09:54:57.015Z,45.50
2018-05-04T09:56:00.433Z,45.10
2018-05-04T09:57:03.666Z,44.30
2018-05-04T09:58:06.184Z,44.30
2018-05-04T09:59:08.683Z,43.70
2018-05-04T10:00:11.430Z,43.60
2018-05-04T10:01:14.299Z,43.70
2018-05-04T10:02:16.828Z,43.80
2018-05-04T10:03:20.067Z,44.20
2018-05-04T10:04:22.561Z,44.20
2018-05-04T10:05:25.383Z,44.40
2018-05-04T10:06:28.059Z,44.60
2018-05-04T10:07:30.591Z,44.60
2018-05-04T10:08:33.837Z,44.60
2018-05-04T10:09:36.320Z,44.60
2018-05-04T10:10:39.037Z,44.70
2018-05-04T10:11:41.545Z,44.70
2018-05-04T10:12:44.029Z,44.50
2018-05-04T10:13:46.520Z,44.30
2018-05-04T10:14:49.915Z,44.10
2018-05-04T10:15:52.584Z,44.00
2018-05-04T10:16:55.076Z,43.80
2018-05-04T10:17:57.540Z,43.80
2018-05-04T10:19:00.003Z,43.80
2018-05-04T10:20:02.541Z,43.80
2018-05-04T10:21:05.327Z,43.90
2018-05-04T10:22:07.808Z,43.90
2018-05-04T10:23:10.285Z,43.90
2018-05-04T10:24:12.757Z,44.10
2018-05-04T10:25:15.481Z,44.80
2018-05-04T10:26:19.024Z,44.30
2018-05-04T10:27:22.276Z,44.50
2018-05-04T10:28:24.744Z,44.50
2018-05-04T10:29:27.208Z,44.40
2018-05-04T10:30:29.994Z,44.20
2018-05-04T10:31:32.482Z,44.10
2018-05-04T10:32:35.720Z,44.70
2018-05-04T10:33:38.191Z,44.20
2018-05-04T10:34:40.656Z,44.10
2018-05-04T10:35:44.219Z,44.30
2018-05-04T10:36:46.719Z,45.00
2018-05-04T10:37:49.184Z,44.40
2018-05-04T10:38:51.665Z,44.50
2018-05-04T10:39:54.204Z,44.50
2018-05-04T10:40:57.054Z,44.30
2018-05-04T10:41:59.560Z,44.10
2018-05-04T10:43:02.028Z,44.00
2018-05-04T10:44:04.528Z,44.10
2018-05-04T10:45:08.049Z,44.90
2018-05-04T10:46:10.909Z,44.40
2018-05-04T10:47:13.483Z,44.60
2018-05-04T10:48:15.948Z,44.70
2018-05-04T10:49:18.466Z,44.70
2018-05-04T10:50:21.119Z,44.50
2018-05-04T10:51:23.795Z,44.40
2018-05-04T10:52:27.056Z,44.50
2018-05-04T10:53:29.520Z,44.50
2018-05-04T10:54:32.011Z,44.30
2018-05-04T10:55:34.700Z,44.10
2018-05-04T10:56:37.220Z,44.20
2018-05-04T10:57:39.684Z,44.00
2018-05-04T10:58:42.160Z,43.90
2018-05-04T10:59:44.629Z,44.00
2018-05-04T11:00:47.353Z,43.90
2018-05-04T11:01:49.878Z,43.90
2018-05-04T11:02:52.343Z,44.00
2018-05-04T11:03:54.831Z,44.20
2018-05-04T11:04:58.086Z,44.50
2018-05-04T11:06:01.176Z,44.50
2018-05-04T11:07:03.691Z,44.20
2018-05-04T11:08:06.344Z,43.90
2018-05-04T11:09:08.824Z,43.80
2018-05-04T11:10:11.621Z,43.50
2018-05-04T11:11:16.091Z,43.40
2018-05-04T11:12:18.608Z,43.30
2018-05-04T11:13:21.080Z,43.40
2018-05-04T11:14:23.552Z,43.20
2018-05-04T11:15:26.298Z,42.80
2018-05-04T11:16:28.827Z,42.60
2018-05-04T11:17:31.652Z,42.40
2018-05-04T11:18:34.119Z,42.50
2018-05-04T11:19:38.096Z,42.70
2018-05-04T11:20:40.895Z,42.70
2018-05-04T11:21:44.140Z,42.20
2018-05-04T11:22:46.623Z,42.10
2018-05-04T11:23:49.115Z,42.00
2018-05-04T11:24:52.343Z,41.70
2018-05-04T11:25:55.096Z,42.10
2018-05-04T11:26:57.599Z,42.00
2018-05-04T11:28:00.080Z,41.80
2018-05-04T11:29:02.560Z,41.80
2018-05-04T11:30:06.090Z,41.90
2018-05-04T11:31:08.857Z,41.90
2018-05-04T11:32:11.396Z,41.70
2018-05-04T11:33:14.929Z,41.50
2018-05-04T11:34:17.488Z,41.50
2018-05-04T11:35:20.177Z,41.50
2018-05-04T11:36:23.532Z,41.60
2018-05-04T11:37:26.004Z,41.60
2018-05-04T11:38:28.485Z,41.60
2018-05-04T11:39:30.958Z,41.80
2018-05-04T11:40:34.512Z,41.60
2018-05-04T11:41:37.016Z,41.70
2018-05-04T11:42:39.492Z,41.70
2018-05-04T11:43:41.983Z,41.20
2018-05-04T11:44:45.220Z,40.80
2018-05-04T11:45:49.012Z,40.80
2018-05-04T11:46:53.020Z,40.70
2018-05-04T11:47:55.489Z,40.60
2018-05-04T11:48:58.772Z,40.60
2018-05-04T11:50:01.253Z,40.60
2018-05-04T11:51:05.399Z,40.40
2018-05-04T11:52:07.903Z,40.40
2018-05-04T11:53:10.372Z,40.30
2018-05-04T11:54:12.857Z,40.90
2018-05-04T11:55:17.232Z,40.40
2018-05-04T11:56:20.001Z,40.40
2018-05-04T11:57:22.497Z,40.50
2018-05-04T11:58:24.967Z,40.50
2018-05-04T11:59:27.503Z,40.80
2018-05-04T12:00:30.609Z,40.90
2018-05-04T12:01:33.847Z,40.30
2018-05-04T12:02:36.352Z,40.30
2018-05-04T12:03:38.817Z,40.00
2018-05-04T12:04:42.081Z,40.10
2018-05-04T12:05:44.740Z,40.00
2018-05-04T12:06:48.052Z,40.40
2018-05-04T12:07:50.515Z,40.20
2018-05-04T12:08:52.996Z,40.30
2018-05-04T12:09:56.527Z,40.70
2018-05-04T12:10:59.135Z,40.40
2018-05-04T12:12:02.396Z,40.30
2018-05-04T12:13:04.903Z,40.20
2018-05-04T12:14:08.144Z,39.90
2018-05-04T12:15:10.983Z,39.90
2018-05-04T12:16:13.766Z,39.90
2018-05-04T12:17:16.259Z,39.80
2018-05-04T12:18:18.792Z,39.90
2018-05-04T12:19:21.261Z,39.30
2018-05-04T12:20:25.145Z,39.20
2018-05-04T12:21:28.678Z,39.30
2018-05-04T12:22:32.660Z,39.10
2018-05-04T12:23:35.127Z,39.10
2018-05-04T12:24:37.596Z,39.10
2018-05-04T12:25:40.335Z,39.00
2018-05-04T12:26:42.820Z,38.90
2018-05-04T12:27:45.321Z,39.00
2018-05-04T12:28:48.564Z,39.10
2018-05-04T12:29:51.027Z,39.10
2018-05-04T12:30:53.833Z,38.70
2018-05-04T12:31:56.321Z,37.70
2018-05-04T12:32:59.543Z,37.10
2018-05-04T12:34:02.024Z,36.90
2018-05-04T12:35:04.946Z,37.20
2018-05-04T12:36:08.615Z,36.80
2018-05-04T12:37:11.184Z,36.80
2018-05-04T12:38:13.592Z,36.90
2018-05-04T12:39:16.059Z,37.00
2018-05-04T12:40:18.726Z,36.70
2018-05-04T12:41:21.625Z,36.60
2018-05-04T12:42:24.115Z,36.60
2018-05-04T12:43:26.583Z,36.40
2018-05-04T12:44:29.047Z,35.90
2018-05-04T12:45:31.764Z,35.80
2018-05-04T12:46:34.305Z,36.10
2018-05-04T12:47:37.540Z,36.40
2018-05-04T12:48:40.004Z,36.30
2018-05-04T12:49:42.467Z,36.50
2018-05-04T12:50:45.929Z,36.10
2018-05-04T12:51:48.436Z,36.40
2018-05-04T12:52:50.900Z,35.70
2018-05-04T12:53:53.364Z,35.50
2018-05-04T12:54:55.840Z,35.40
2018-05-04T12:55:58.556Z,35.20
2018-05-04T12:57:01.071Z,35.00
2018-05-04T12:58:03.540Z,35.10
2018-05-04T12:59:06.013Z,35.20
2018-05-04T13:00:09.576Z,35.50
2018-05-04T13:01:12.416Z,35.40
2018-05-04T13:02:14.944Z,35.10
2018-05-04T13:03:17.412Z,35.70
2018-05-04T13:04:20.680Z,35.40
2018-05-04T13:05:23.396Z,35.30
2018-05-04T13:06:26.270Z,35.30
2018-05-04T13:07:28.811Z,35.40
2018-05-04T13:08:32.044Z,36.00
2018-05-04T13:09:34.508Z,35.90
2018-05-04T13:10:37.253Z,36.10
2018-05-04T13:11:39.747Z,35.90
2018-05-04T13:12:42.236Z,35.90
2018-05-04T13:13:44.708Z,36.20
2018-05-04T13:14:47.168Z,36.10
2018-05-04T13:15:49.885Z,36.00
2018-05-04T13:16:52.376Z,35.90
2018-05-04T13:17:54.856Z,36.00
2018-05-04T13:18:57.323Z,36.20
2018-05-04T13:19:59.792Z,36.30
2018-05-04T13:21:02.612Z,36.50
2018-05-04T13:22:05.116Z,36.50
2018-05-04T13:23:07.600Z,36.30
2018-05-04T13:24:11.572Z,36.80
2018-05-04T13:25:14.209Z,36.70
2018-05-04T13:26:16.988Z,37.20
2018-05-04T13:27:19.487Z,37.20
2018-05-04T13:28:21.992Z,35.80
2018-05-04T13:29:25.223Z,35.80
2018-05-04T13:30:27.965Z,35.80